createdAt,value
2018-07-27T00:00:54.712Z,22.60
2018-07-27T00:03:24.087Z,22.60
2018-07-27T00:05:53.612Z,22.70
2018-07-27T00:08:23.048Z,22.60
2018-07-27T00:10:52.449Z,22.60
2018-07-27T00:13:22.086Z,22.60
2018-07-27T00:15:51.670Z,22.60
2018-07-27T00:18:21.258Z,22.60
2018-07-27T00:20:50.791Z,22.60
2018-07-27T00:23:20.356Z,22.70
2018-07-27T00:25:49.844Z,22.70
2018-07-27T00:28:19.300Z,22.70
2018-07-27T00:30:48.796Z,22.70
2018-07-27T00:33:18.522Z,22.80
2018-07-27T00:35:48.044Z,22.80
2018-07-27T00:38:17.456Z,22.80
2018-07-27T00:40:47.010Z,22.80
2018-07-27T00:43:16.328Z,22.80
2018-07-27T00:45:45.758Z,22.60
2018-07-27T00:48:15.068Z,22.60
2018-07-27T00:50:44.400Z,22.50
2018-07-27T00:53:13.972Z,22.50
2018-07-27T00:55:43.400Z,22.60
2018-07-27T00:58:12.828Z,22.60
2018-07-27T01:00:42.182Z,22.60
2018-07-27T01:03:11.435Z,22.50
2018-07-27T01:05:40.726Z,22.50
2018-07-27T01:08:09.989Z,22.50
2018-07-27T01:10:39.193Z,22.50
2018-07-27T01:13:08.738Z,22.50
2018-07-27T01:15:37.985Z,22.50
2018-07-27T01:18:07.609Z,22.40
2018-07-27T01:20:37.212Z,22.30
2018-07-27T01:23:06.646Z,22.20
2018-07-27T01:25:36.121Z,22.20
2018-07-27T01:28:05.820Z,22.20
2018-07-27T01:30:35.187Z,22.20
2018-07-27T01:33:04.728Z,22.20
2018-07-27T01:35:34.173Z,22.20
2018-07-27T01:38:03.573Z,22.10
2018-07-27T01:40:33.085Z,22.10
2018-07-27T01:43:02.447Z,22.00
2018-07-27T01:45:31.988Z,21.90
2018-07-27T01:48:01.415Z,21.80
2018-07-27T01:50:30.830Z,21.70
2018-07-27T01:53:00.120Z,21.70
2018-07-27T01:55:29.636Z,21.60
2018-07-27T01:57:59.122Z,21.60
2018-07-27T02:00:28.764Z,21.50
2018-07-27T02:02:58.168Z,21.50
2018-07-27T02:05:27.502Z,21.40
2018-07-27T02:07:56.970Z,21.40
2018-07-27T02:10:26.584Z,21.40
2018-07-27T02:12:56.187Z,21.30
2018-07-27T02:15:25.608Z,21.30
2018-07-27T02:17:54.992Z,21.30
2018-07-27T02:20:24.412Z,21.20
2018-07-27T02:22:53.866Z,21.20
2018-07-27T02:25:23.353Z,21.10
2018-07-27T02:27:52.872Z,21.00
2018-07-27T02:30:22.188Z,21.00
2018-07-27T02:32:51.624Z,21.10
2018-07-27T02:35:21.056Z,21.10
2018-07-27T02:37:50.482Z,21.10
2018-07-27T02:40:20.140Z,21.20
2018-07-27T02:42:49.546Z,21.20
2018-07-27T02:45:18.887Z,21.20
2018-07-27T02:47:49.671Z,21.20
2018-07-27T02:50:20.100Z,21.20
2018-07-27T02:52:49.617Z,21.10
2018-07-27T02:55:18.906Z,21.00
2018-07-27T02:57:48.206Z,21.00
2018-07-27T03:00:17.508Z,20.90
2018-07-27T03:02:46.833Z,20.90
2018-07-27T03:05:16.266Z,20.90
2018-07-27T03:07:45.804Z,20.80
2018-07-27T03:10:15.701Z,20.80
2018-07-27T03:12:45.205Z,20.80
2018-07-27T03:15:14.851Z,20.70
2018-07-27T03:17:44.370Z,20.70
2018-07-27T03:20:13.813Z,20.70
2018-07-27T03:22:43.202Z,20.70
2018-07-27T03:25:12.683Z,20.70
2018-07-27T03:27:42.229Z,20.70
2018-07-27T03:30:11.674Z,20.70
2018-07-27T03:32:41.015Z,20.80
2018-07-27T03:35:10.507Z,20.80
2018-07-27T03:37:40.025Z,20.80
2018-07-27T03:40:09.541Z,20.80
2018-07-27T03:42:39.063Z,20.80
2018-07-27T03:45:08.481Z,20.70
2018-07-27T03:47:37.803Z,20.60
2018-07-27T03:50:07.309Z,20.60
2018-07-27T03:52:40.383Z,20.60
2018-07-27T03:55:14.325Z,20.60
2018-07-27T03:57:47.285Z,20.60
2018-07-27T04:00:17.236Z,20.50
2018-07-27T04:02:46.793Z,20.50
2018-07-27T04:05:16.260Z,20.60
2018-07-27T04:07:45.729Z,20.60
2018-07-27T04:10:15.365Z,20.60
2018-07-27T04:12:44.800Z,20.70
2018-07-27T04:15:14.202Z,20.70
2018-07-27T04:18:13.903Z,20.70
2018-07-27T04:20:43.360Z,20.70
2018-07-27T04:23:12.794Z,20.80
2018-07-27T04:25:42.092Z,20.80
2018-07-27T04:28:11.795Z,20.90
2018-07-27T04:30:41.580Z,20.90
2018-07-27T04:33:10.967Z,20.90
2018-07-27T04:35:40.432Z,20.90
2018-07-27T04:38:10.001Z,21.00
2018-07-27T04:40:39.732Z,21.00
2018-07-27T04:43:09.287Z,21.00
2018-07-27T04:45:38.810Z,21.10
2018-07-27T04:48:08.503Z,21.10
2018-07-27T04:50:38.140Z,21.20
2018-07-27T04:53:07.687Z,21.30
2018-07-27T04:55:37.172Z,21.30
2018-07-27T04:58:06.743Z,21.40
2018-07-27T05:00:37.762Z,21.50
2018-07-27T05:03:07.174Z,21.70
2018-07-27T05:05:36.623Z,21.80
2018-07-27T05:08:06.306Z,21.90
2018-07-27T05:10:40.859Z,21.90
2018-07-27T05:13:10.270Z,22.00
2018-07-27T05:15:40.816Z,22.10
2018-07-27T05:18:10.346Z,22.20
2018-07-27T05:20:39.878Z,22.30
2018-07-27T05:23:09.345Z,22.40
2018-07-27T05:25:39.008Z,22.50
2018-07-27T05:28:09.296Z,22.60
2018-07-27T05:30:39.206Z,22.70
2018-07-27T05:33:08.653Z,22.80
2018-07-27T05:35:38.202Z,23.00
2018-07-27T05:38:11.250Z,23.20
2018-07-27T05:40:40.826Z,23.30
2018-07-27T05:43:10.355Z,23.50
2018-07-27T05:45:39.803Z,23.70
2018-07-27T05:48:13.011Z,23.90
2018-07-27T05:50:43.112Z,24.00
2018-07-27T05:53:12.714Z,24.10
2018-07-27T05:55:46.481Z,24.10
2018-07-27T05:58:17.723Z,24.20
2018-07-27T06:00:47.367Z,24.30
2018-07-27T06:03:16.913Z,24.50
2018-07-27T06:05:46.582Z,24.70
2018-07-27T06:08:16.158Z,24.80
2018-07-27T06:10:45.766Z,24.90
2018-07-27T06:13:15.382Z,24.90
2018-07-27T06:15:45.250Z,25.00
2018-07-27T06:18:14.881Z,25.00
2018-07-27T06:20:44.535Z,25.10
2018-07-27T06:23:14.149Z,25.20
2018-07-27T06:25:43.678Z,25.30
2018-07-27T06:28:13.291Z,25.40
2018-07-27T06:30:42.823Z,25.30
2018-07-27T06:33:12.449Z,25.30
2018-07-27T06:35:43.950Z,25.60
2018-07-27T06:38:13.815Z,25.80
2018-07-27T06:40:43.852Z,25.90
2018-07-27T06:43:13.344Z,25.70
2018-07-27T06:45:42.979Z,25.80
2018-07-27T06:48:19.750Z,26.00
2018-07-27T06:50:51.070Z,26.30
2018-07-27T06:53:20.776Z,26.50
2018-07-27T06:55:50.296Z,26.80
2018-07-27T06:58:19.888Z,27.00
2018-07-27T07:00:49.434Z,27.20
2018-07-27T07:03:19.110Z,27.40
2018-07-27T07:05:49.181Z,27.60
2018-07-27T07:08:18.660Z,27.70
2018-07-27T07:10:48.165Z,27.80
2018-07-27T07:13:17.661Z,28.10
2018-07-27T07:15:47.354Z,28.10
2018-07-27T07:18:16.707Z,28.30
2018-07-27T07:20:46.679Z,28.50
2018-07-27T07:23:16.225Z,28.60
2018-07-27T07:25:46.051Z,28.80
2018-07-27T07:28:15.352Z,28.90
2018-07-27T07:30:44.846Z,29.00
2018-07-27T07:33:14.443Z,29.20
2018-07-27T07:35:43.909Z,29.40
2018-07-27T07:38:13.722Z,29.60
2018-07-27T07:40:43.254Z,29.60
2018-07-27T07:43:12.964Z,29.80
2018-07-27T07:45:42.519Z,29.80
2018-07-27T07:48:12.247Z,30.00
2018-07-27T07:50:41.780Z,30.20
2018-07-27T07:53:11.227Z,30.40
2018-07-27T07:55:41.111Z,30.50
2018-07-27T07:58:10.692Z,30.60
2018-07-27T08:00:40.193Z,30.60
2018-07-27T08:03:09.801Z,30.80
2018-07-27T08:05:39.139Z,31.00
2018-07-27T08:08:08.569Z,31.20
2018-07-27T08:10:38.115Z,31.30
2018-07-27T08:13:07.694Z,31.40
2018-07-27T08:15:37.268Z,31.70
2018-07-27T08:18:06.951Z,31.90
2018-07-27T08:20:36.365Z,32.00
2018-07-27T08:23:05.941Z,32.20
2018-07-27T08:25:46.781Z,32.40
2018-07-27T08:28:27.303Z,32.50
2018-07-27T08:30:57.039Z,32.50
2018-07-27T08:33:26.503Z,32.60
2018-07-27T08:35:56.011Z,32.80
2018-07-27T08:38:25.402Z,33.00
2018-07-27T08:40:54.827Z,33.30
2018-07-27T08:43:24.234Z,33.40
2018-07-27T08:45:54.014Z,33.40
2018-07-27T08:48:23.459Z,33.40
2018-07-27T08:50:53.403Z,33.50
2018-07-27T08:53:22.859Z,33.60
2018-07-27T08:55:52.215Z,33.60
2018-07-27T08:58:21.532Z,33.70
2018-07-27T09:00:56.048Z,34.10
2018-07-27T09:03:25.646Z,34.10
2018-07-27T09:05:55.094Z,34.10
2018-07-27T09:08:24.679Z,33.90
2018-07-27T09:10:54.097Z,33.60
2018-07-27T09:13:23.434Z,33.50
2018-07-27T09:15:52.986Z,33.40
2018-07-27T09:18:22.555Z,33.40
2018-07-27T09:20:52.036Z,33.50
2018-07-27T09:23:21.598Z,33.60
2018-07-27T09:25:51.002Z,33.60
2018-07-27T09:28:20.359Z,33.80
2018-07-27T09:30:49.987Z,33.90
2018-07-27T09:33:19.684Z,34.00
2018-07-27T09:35:49.435Z,34.20
2018-07-27T09:38:18.864Z,34.40
2018-07-27T09:40:48.789Z,34.70
2018-07-27T09:43:18.937Z,35.20
2018-07-27T09:45:48.519Z,35.40
2018-07-27T09:48:18.058Z,35.30
2018-07-27T09:50:47.678Z,35.10
2018-07-27T09:53:17.346Z,35.00
2018-07-27T09:55:46.907Z,35.00
2018-07-27T09:58:16.791Z,35.10
2018-07-27T10:00:51.733Z,35.30
2018-07-27T10:03:21.235Z,35.10
2018-07-27T10:05:50.877Z,35.20
2018-07-27T10:08:20.598Z,35.50
2018-07-27T10:10:50.849Z,35.70
2018-07-27T10:13:20.361Z,36.10
2018-07-27T10:15:49.877Z,36.40
2018-07-27T10:18:19.911Z,36.50
2018-07-27T10:20:49.617Z,36.60
2018-07-27T10:23:19.226Z,36.80
2018-07-27T10:25:48.694Z,36.80
2018-07-27T10:28:18.191Z,36.60
2018-07-27T10:30:47.944Z,36.70
2018-07-27T10:33:17.366Z,36.50
2018-07-27T10:35:46.836Z,36.60
2018-07-27T10:38:16.390Z,36.50
2018-07-27T10:40:45.944Z,36.10
2018-07-27T10:43:15.413Z,36.30
2018-07-27T10:45:44.908Z,36.30
2018-07-27T10:48:14.331Z,36.30
2018-07-27T10:50:43.969Z,36.50
2018-07-27T10:53:13.499Z,36.70
2018-07-27T10:55:42.998Z,36.80
2018-07-27T10:58:12.524Z,36.80
2018-07-27T11:00:42.072Z,37.30
2018-07-27T11:03:11.513Z,37.40
2018-07-27T11:05:40.978Z,37.10
2018-07-27T11:08:10.516Z,36.70
2018-07-27T11:10:40.077Z,36.30
2018-07-27T11:13:09.484Z,36.10
2018-07-27T11:15:39.112Z,36.00
2018-07-27T11:18:08.691Z,36.00
2018-07-27T11:20:38.168Z,36.00
2018-07-27T11:23:07.619Z,36.00
2018-07-27T11:25:37.182Z,36.40
2018-07-27T11:28:06.760Z,36.80
2018-07-27T11:30:36.193Z,37.10
2018-07-27T11:33:05.734Z,37.60
2018-07-27T11:35:35.272Z,37.60
2018-07-27T11:38:04.693Z,37.40
2018-07-27T11:40:34.207Z,37.20
2018-07-27T11:43:03.780Z,37.30
2018-07-27T11:45:33.197Z,37.40
2018-07-27T11:48:02.855Z,37.30
2018-07-27T11:50:32.291Z,37.50
2018-07-27T11:53:01.911Z,37.60
2018-07-27T12:47:41.490Z,38.80
2018-07-27T12:50:11.340Z,38.60
2018-07-27T12:52:40.848Z,38.50
2018-07-27T12:55:10.241Z,38.40
2018-07-27T12:57:39.712Z,38.40
2018-07-27T13:00:09.933Z,38.80
2018-07-27T13:02:39.846Z,38.90
2018-07-27T13:05:09.619Z,38.80
2018-07-27T13:07:39.258Z,38.60
2018-07-27T13:10:08.845Z,37.40
2018-07-27T13:12:38.897Z,35.80
2018-07-27T13:15:09.308Z,34.40
2018-07-27T13:17:38.870Z,33.90
2018-07-27T13:20:08.627Z,34.00
2018-07-27T13:22:38.264Z,33.90
2018-07-27T13:25:07.822Z,34.00
2018-07-27T13:27:37.403Z,34.40
2018-07-27T13:30:07.210Z,35.10
2018-07-27T13:32:36.650Z,35.60
2018-07-27T13:37:36.740Z,36.30
2018-07-27T13:40:06.507Z,36.40
2018-07-27T13:42:37.014Z,36.70
2018-07-27T13:45:06.487Z,36.60
2018-07-27T13:47:36.125Z,37.10
2018-07-27T13:50:05.711Z,37.50
2018-07-27T13:52:35.355Z,37.60
2018-07-27T13:55:05.089Z,37.70
2018-07-27T13:57:34.606Z,37.80
2018-07-27T14:00:04.392Z,38.10
2018-07-27T14:02:34.172Z,38.20
2018-07-27T14:05:03.952Z,38.00
2018-07-27T14:07:33.640Z,38.00
2018-07-27T14:10:03.111Z,38.60
2018-07-27T14:12:32.997Z,38.50
2018-07-27T14:15:02.959Z,38.00
2018-07-27T14:17:32.556Z,37.70
2018-07-27T14:20:02.069Z,37.40
2018-07-27T14:22:31.774Z,36.80
2018-07-27T14:25:01.420Z,36.70
2018-07-27T14:27:30.952Z,36.80
2018-07-27T14:30:00.438Z,36.90
2018-07-27T14:32:30.047Z,37.20
2018-07-27T14:34:59.608Z,37.10
2018-07-27T14:37:29.204Z,37.10
2018-07-27T14:39:58.818Z,37.10
2018-07-27T14:42:28.390Z,37.30
2018-07-27T14:44:57.801Z,37.60
2018-07-27T14:47:27.243Z,37.80
2018-07-27T14:49:56.772Z,38.10
2018-07-27T14:52:26.627Z,37.60
2018-07-27T14:54:55.979Z,37.30
2018-07-27T14:57:25.433Z,37.20
2018-07-27T14:59:54.845Z,37.30
2018-07-27T15:02:24.534Z,37.20
2018-07-27T15:04:54.075Z,37.30
2018-07-27T15:07:23.805Z,37.10
2018-07-27T15:09:53.359Z,36.90
2018-07-27T15:12:22.663Z,36.70
2018-07-27T15:14:52.182Z,36.50
2018-07-27T15:17:21.779Z,36.20
2018-07-27T15:19:51.361Z,35.80
2018-07-27T15:22:20.815Z,35.70
2018-07-27T15:24:50.607Z,35.50
2018-07-27T15:27:20.155Z,35.40
2018-07-27T15:29:49.819Z,35.40
2018-07-27T15:32:19.504Z,35.40
2018-07-27T15:34:48.949Z,35.30
2018-07-27T15:37:18.558Z,35.20
2018-07-27T15:39:48.201Z,35.20
2018-07-27T15:42:17.657Z,35.40
2018-07-27T15:44:47.242Z,35.40
2018-07-27T15:47:16.698Z,35.40
2018-07-27T15:49:46.127Z,35.60
2018-07-27T15:52:15.537Z,35.80
2018-07-27T15:54:44.923Z,35.90
2018-07-27T15:57:14.570Z,35.90
2018-07-27T15:59:43.981Z,36.00
2018-07-27T16:02:13.713Z,36.10
2018-07-27T16:04:43.355Z,36.20
2018-07-27T16:07:12.818Z,35.90
2018-07-27T16:09:42.248Z,35.70
2018-07-27T16:12:11.776Z,35.50
2018-07-27T16:14:41.176Z,35.30
2018-07-27T16:17:10.908Z,35.20
2018-07-27T16:19:40.218Z,35.10
2018-07-27T16:22:09.554Z,35.10
2018-07-27T16:24:39.118Z,35.00
2018-07-27T16:27:08.502Z,34.80
2018-07-27T16:29:37.976Z,34.70
2018-07-27T16:32:07.879Z,34.60
2018-07-27T16:34:37.253Z,34.40
2018-07-27T16:37:06.700Z,34.20
2018-07-27T16:39:36.282Z,34.10
2018-07-27T16:42:06.180Z,34.00
2018-07-27T16:44:35.822Z,34.00
2018-07-27T16:47:05.512Z,33.90
2018-07-27T16:49:35.032Z,33.90
2018-07-27T16:52:04.508Z,33.80
2018-07-27T16:54:33.800Z,33.80
2018-07-27T16:57:03.288Z,33.80
2018-07-27T16:59:32.716Z,33.80
2018-07-27T17:02:02.238Z,33.80
2018-07-27T17:04:31.706Z,33.80
2018-07-27T17:07:01.136Z,33.70
2018-07-27T17:09:30.731Z,33.70
2018-07-27T17:12:00.257Z,33.70
2018-07-27T17:14:29.783Z,33.60
2018-07-27T17:16:59.267Z,33.60
2018-07-27T17:19:28.685Z,33.50
2018-07-27T17:21:58.155Z,33.60
2018-07-27T17:24:27.714Z,33.50
2018-07-27T17:26:57.248Z,33.40
2018-07-27T17:29:26.668Z,33.30
2018-07-27T17:31:56.216Z,33.20
2018-07-27T17:34:25.660Z,33.20
2018-07-27T17:36:55.107Z,33.10
2018-07-27T17:39:24.588Z,33.00
2018-07-27T17:41:54.194Z,33.00
2018-07-27T17:44:23.572Z,32.90
2018-07-27T17:46:53.183Z,32.80
2018-07-27T17:49:22.631Z,32.80
2018-07-27T17:51:52.051Z,32.60
2018-07-27T17:54:21.551Z,32.60
2018-07-27T17:56:51.103Z,32.50
2018-07-27T17:59:20.439Z,32.40
2018-07-27T18:01:49.919Z,32.40
2018-07-27T18:04:19.479Z,32.30
2018-07-27T18:06:48.941Z,32.20
2018-07-27T18:09:18.723Z,32.10
2018-07-27T18:11:48.116Z,32.10
2018-07-27T18:14:17.626Z,32.00
2018-07-27T18:16:47.142Z,31.90
2018-07-27T18:19:16.692Z,31.80
2018-07-27T18:21:46.409Z,31.70
2018-07-27T18:24:15.893Z,31.70
2018-07-27T18:26:45.182Z,31.80
2018-07-27T18:29:14.804Z,31.80
2018-07-27T18:31:44.333Z,31.70
2018-07-27T18:34:13.916Z,31.70
2018-07-27T18:36:43.627Z,31.70
2018-07-27T18:39:13.571Z,31.60
2018-07-27T18:41:42.992Z,31.50
2018-07-27T18:44:12.859Z,31.30
2018-07-27T18:46:42.303Z,31.20
2018-07-27T18:49:11.685Z,31.00
2018-07-27T18:51:41.457Z,31.00
2018-07-27T18:54:10.839Z,30.80
2018-07-27T18:56:40.430Z,30.60
2018-07-27T18:59:09.872Z,30.40
2018-07-27T19:01:39.430Z,30.30
2018-07-27T19:04:08.820Z,30.00
2018-07-27T19:06:38.257Z,29.80
2018-07-27T19:09:10.697Z,29.50
2018-07-27T19:11:40.238Z,29.20
2018-07-27T19:14:10.097Z,29.00
2018-07-27T19:16:39.601Z,28.80
2018-07-27T19:19:09.324Z,28.70
2018-07-27T19:21:38.650Z,28.60
2018-07-27T19:24:08.451Z,28.50
2018-07-27T19:26:37.955Z,28.20
2018-07-27T19:29:07.555Z,28.10
2018-07-27T19:31:37.171Z,27.90
2018-07-27T19:34:06.797Z,27.90
2018-07-27T19:36:36.270Z,27.80
2018-07-27T19:39:07.919Z,27.60
2018-07-27T19:41:37.419Z,27.50
2018-07-27T19:44:07.225Z,27.50
2018-07-27T19:46:36.715Z,27.40
2018-07-27T19:49:06.279Z,27.30
2018-07-27T19:51:35.855Z,27.20
2018-07-27T19:54:05.597Z,27.20
2018-07-27T19:56:35.257Z,27.00
2018-07-27T19:59:04.750Z,27.00
2018-07-27T20:01:34.373Z,26.90
2018-07-27T20:04:04.103Z,26.70
2018-07-27T20:06:38.253Z,26.50
2018-07-27T20:09:09.193Z,26.40
2018-07-27T20:11:38.930Z,26.30
2018-07-27T20:14:08.714Z,26.20
2018-07-27T20:16:38.145Z,26.20
2018-07-27T20:19:07.702Z,26.10
2018-07-27T20:21:37.325Z,26.00
2018-07-27T20:24:06.974Z,25.90
2018-07-27T20:26:36.446Z,25.90
2018-07-27T20:29:06.071Z,25.80
2018-07-27T20:31:36.620Z,25.80
2018-07-27T20:34:07.300Z,25.80
2018-07-27T20:36:36.872Z,25.80
2018-07-27T20:39:09.809Z,25.80
2018-07-27T20:41:39.486Z,25.70
2018-07-27T20:44:09.105Z,25.60
2018-07-27T20:46:38.610Z,25.50
2018-07-27T20:49:08.582Z,25.40
2018-07-27T20:51:38.239Z,25.20
2018-07-27T20:54:07.619Z,25.10
2018-07-27T20:56:37.079Z,25.10
2018-07-27T20:59:06.926Z,25.00
2018-07-27T21:01:36.480Z,24.90
2018-07-27T21:04:06.173Z,24.80
2018-07-27T21:06:35.720Z,24.70
2018-07-27T21:09:07.861Z,24.50
2018-07-27T21:11:37.396Z,24.30
2018-07-27T21:14:07.115Z,24.00
2018-07-27T21:16:37.471Z,23.80
2018-07-27T21:19:07.298Z,23.60
2018-07-27T21:21:36.935Z,23.40
2018-07-27T21:24:06.433Z,23.20
2018-07-27T21:26:36.051Z,23.20
2018-07-27T21:29:05.595Z,23.10
2018-07-27T21:31:34.988Z,23.00
2018-07-27T21:34:04.456Z,23.00
2018-07-27T21:36:33.884Z,23.00
2018-07-27T21:39:03.858Z,23.10
2018-07-27T21:41:33.272Z,23.10
2018-07-27T21:44:02.727Z,23.10
2018-07-27T21:46:32.073Z,23.00
2018-07-27T21:49:02.012Z,22.90
2018-07-27T21:51:31.565Z,22.70
2018-07-27T21:54:01.108Z,22.70
2018-07-27T21:56:31.315Z,22.70
2018-07-27T21:59:00.695Z,22.60
2018-07-27T22:01:30.193Z,22.60
2018-07-27T22:03:59.633Z,22.50
2018-07-27T22:06:29.115Z,22.50
2018-07-27T22:08:58.503Z,22.50
2018-07-27T22:11:27.900Z,22.50
2018-07-27T22:13:57.323Z,22.50
2018-07-27T22:16:26.890Z,22.40
2018-07-27T22:18:56.219Z,22.40
2018-07-27T22:21:25.706Z,22.50
2018-07-27T22:23:55.063Z,22.40
2018-07-27T22:26:24.496Z,22.40
2018-07-27T22:28:53.980Z,22.50
2018-07-27T22:31:23.606Z,22.40
2018-07-27T22:33:53.068Z,22.40
2018-07-27T22:36:22.392Z,22.40
2018-07-27T22:38:51.859Z,22.40
2018-07-27T22:41:21.281Z,22.40
2018-07-27T22:43:50.852Z,22.30
2018-07-27T22:46:20.623Z,22.30
2018-07-27T22:48:49.963Z,22.20
2018-07-27T22:51:19.424Z,22.20
2018-07-27T22:53:48.914Z,22.20
2018-07-27T22:56:18.294Z,22.10
2018-07-27T22:58:47.688Z,22.10
2018-07-27T23:01:17.072Z,22.10
2018-07-27T23:03:46.578Z,22.20
2018-07-27T23:06:16.094Z,22.20
2018-07-27T23:08:45.571Z,22.20
2018-07-27T23:11:15.144Z,22.20
2018-07-27T23:13:44.729Z,22.20
2018-07-27T23:16:14.199Z,22.10
2018-07-27T23:18:43.563Z,22.10
2018-07-27T23:21:13.145Z,22.10
2018-07-27T23:23:42.658Z,22.00
2018-07-27T23:26:12.172Z,22.00
2018-07-27T23:28:41.693Z,21.90
2018-07-27T23:31:11.197Z,22.00
2018-07-27T23:33:40.650Z,22.00
2018-07-27T23:36:10.220Z,22.00
2018-07-27T23:38:39.864Z,22.10
2018-07-27T23:41:09.475Z,22.10
2018-07-27T23:43:38.890Z,22.10
2018-07-27T23:46:08.450Z,22.00
2018-07-27T23:48:37.885Z,22.10
2018-07-27T23:51:07.641Z,22.10
2018-07-27T23:53:37.337Z,22.00
2018-07-27T23:56:06.776Z,22.00
2018-07-27T23:58:36.380Z,22.10
